createdAt,value
2022-11-16T00:01:46.623Z,66.40
2022-11-16T00:06:49.861Z,73.40
2022-11-16T00:12:04.196Z,73.00
2022-11-16T00:17:06.320Z,72.90
2022-11-16T00:22:08.241Z,85.90
2022-11-16T00:27:10.147Z,78.90
2022-11-16T00:32:12.590Z,82.70
2022-11-16T00:37:14.443Z,85.30
2022-11-16T00:42:16.316Z,89.10
2022-11-16T00:47:18.427Z,80.10
2022-11-16T00:52:20.284Z,76.00
2022-11-16T00:57:22.262Z,81.40
2022-11-16T01:02:25.813Z,84.00
2022-11-16T01:07:27.748Z,75.30
2022-11-16T01:12:29.686Z,69.60
2022-11-16T01:17:31.594Z,62.20
2022-11-16T01:22:37.917Z,57.80
2022-11-16T01:27:40.829Z,61.60
2022-11-16T01:32:47.446Z,63.00
2022-11-16T01:37:50.220Z,69.00
2022-11-16T01:42:53.068Z,69.60
2022-11-16T01:47:55.531Z,73.00
2022-11-16T01:53:05.941Z,68.10
2022-11-16T01:58:19.913Z,72.40
2022-11-16T02:03:27.285Z,63.60
2022-11-16T02:08:57.626Z,57.40
2022-11-16T02:14:20.420Z,58.70
2022-11-16T02:20:00.485Z,55.70
2022-11-16T02:25:05.758Z,57.80
2022-11-16T02:30:08.623Z,63.90
2022-11-16T02:35:37.067Z,63.30
2022-11-16T02:40:46.690Z,61.00
2022-11-16T02:45:55.477Z,61.00
2022-11-16T02:50:57.959Z,51.10
2022-11-16T02:55:59.969Z,51.20
2022-11-16T03:01:18.272Z,51.60
2022-11-16T03:06:29.864Z,47.70
2022-11-16T03:11:55.002Z,43.50
2022-11-16T03:16:57.957Z,43.30
2022-11-16T03:22:04.747Z,45.70
2022-11-16T03:27:22.215Z,43.60
2022-11-16T03:32:36.827Z,39.30
2022-11-16T03:37:43.253Z,45.90
2022-11-16T03:42:49.681Z,46.70
2022-11-16T03:47:52.445Z,42.10
2022-11-16T03:52:55.837Z,41.80
2022-11-16T03:57:58.317Z,42.50
2022-11-16T04:03:00.254Z,40.50
2022-11-16T04:08:20.988Z,49.20
2022-11-16T04:13:47.671Z,35.60
2022-11-16T04:19:08.349Z,40.10
2022-11-16T04:24:20.856Z,37.50
2022-11-16T04:29:23.134Z,31.40
2022-11-16T04:34:43.882Z,34.90
2022-11-16T04:39:45.765Z,36.30
2022-11-16T04:45:06.711Z,28.00
2022-11-16T04:50:13.725Z,26.60
2022-11-16T04:55:16.038Z,23.90
2022-11-16T05:00:19.474Z,28.40
2022-11-16T05:05:21.773Z,28.50
2022-11-16T05:10:24.521Z,27.70
2022-11-16T05:15:27.416Z,24.00
2022-11-16T05:20:48.450Z,21.80
2022-11-16T05:25:50.360Z,24.10
2022-11-16T05:30:52.557Z,22.80
2022-11-16T05:35:57.430Z,26.90
2022-11-16T05:40:59.607Z,26.50
2022-11-16T05:46:02.188Z,25.40
2022-11-16T05:51:04.106Z,28.30
2022-11-16T05:56:08.777Z,29.30
2022-11-16T06:01:13.181Z,19.40
2022-11-16T06:06:15.410Z,24.50
2022-11-16T06:11:17.963Z,25.10
2022-11-16T06:16:20.623Z,26.70
2022-11-16T06:21:22.923Z,25.00
2022-11-16T06:26:24.935Z,24.90
2022-11-16T06:31:26.909Z,26.90
2022-11-16T06:36:29.959Z,25.60
2022-11-16T06:41:32.941Z,26.80
2022-11-16T06:46:35.249Z,25.80
2022-11-16T06:51:37.814Z,27.20
2022-11-16T06:56:39.933Z,31.20
2022-11-16T07:01:43.145Z,30.20
2022-11-16T07:06:47.698Z,28.10
2022-11-16T07:11:50.266Z,32.90
2022-11-16T07:16:59.324Z,39.70
2022-11-16T07:22:04.386Z,41.70
2022-11-16T07:27:08.569Z,49.50
2022-11-16T07:32:11.789Z,40.50
2022-11-16T07:37:52.686Z,40.30
2022-11-16T07:42:57.796Z,44.40
2022-11-16T07:48:06.298Z,47.70
2022-11-16T07:53:26.778Z,40.80
2022-11-16T07:58:30.016Z,37.60
2022-11-16T08:03:34.142Z,38.10
2022-11-16T08:08:38.876Z,46.40
2022-11-16T08:13:42.539Z,40.90
2022-11-16T08:18:45.328Z,45.40
2022-11-16T08:23:48.260Z,46.40
2022-11-16T08:28:51.453Z,48.30
2022-11-16T08:33:54.377Z,40.10
2022-11-16T08:38:56.545Z,49.80
2022-11-16T08:44:00.310Z,60.40
2022-11-16T08:49:02.462Z,59.50
2022-11-16T08:54:06.382Z,70.10
2022-11-16T08:59:10.434Z,68.50
2022-11-16T09:04:15.337Z,66.10
2022-11-16T09:09:17.180Z,65.90
2022-11-16T09:14:19.052Z,64.20
2022-11-16T09:19:21.056Z,72.10
2022-11-16T09:24:22.900Z,64.90
2022-11-16T09:29:27.722Z,59.30
2022-11-16T09:34:29.686Z,56.40
2022-11-16T09:39:32.684Z,57.90
2022-11-16T09:45:05.221Z,71.50
2022-11-16T09:50:19.185Z,82.90
2022-11-16T09:55:25.998Z,84.30
2022-11-16T10:00:30.837Z,68.10
2022-11-16T10:06:06.500Z,82.50
2022-11-16T10:11:17.500Z,84.60
2022-11-16T10:16:48.855Z,77.50
2022-11-16T10:22:09.452Z,89.10
2022-11-16T10:27:27.710Z,86.40
2022-11-16T10:32:33.635Z,83.20
2022-11-16T10:37:39.405Z,85.80
2022-11-16T10:42:41.287Z,79.50
2022-11-16T10:48:16.726Z,78.50
2022-11-16T10:53:36.868Z,97.30
2022-11-16T10:59:06.322Z,102.80
2022-11-16T11:04:24.526Z,101.20
2022-11-16T11:09:27.845Z,132.30
2022-11-16T11:14:32.691Z,120.20
2022-11-16T11:19:34.539Z,101.10
2022-11-16T11:24:45.184Z,104.70
2022-11-16T11:29:52.958Z,84.70
2022-11-16T11:34:56.331Z,79.80
2022-11-16T11:40:27.791Z,69.40
2022-11-16T11:45:39.655Z,58.20
2022-11-16T11:50:50.357Z,54.60
2022-11-16T11:55:57.835Z,55.20
2022-11-16T12:01:35.601Z,50.30
2022-11-16T12:07:02.346Z,42.30
2022-11-16T12:12:22.467Z,44.80
2022-11-16T12:17:39.153Z,41.20
2022-11-16T12:23:08.253Z,25.70
2022-11-16T12:28:42.174Z,24.20
2022-11-16T12:33:58.593Z,23.00
2022-11-16T12:39:26.801Z,18.00
2022-11-16T12:44:37.785Z,14.20
2022-11-16T12:50:17.422Z,11.10
2022-11-16T12:55:42.605Z,12.20
2022-11-16T13:00:50.173Z,10.10
2022-11-16T13:06:06.680Z,11.50
2022-11-16T13:11:14.928Z,10.30
2022-11-16T13:16:18.168Z,9.00
2022-11-16T13:21:42.004Z,12.00
2022-11-16T13:27:06.114Z,14.70
2022-11-16T13:32:24.421Z,14.00
2022-11-16T13:37:38.293Z,13.70
2022-11-16T13:42:58.304Z,17.00
2022-11-16T13:48:03.480Z,17.80
2022-11-16T13:58:44.004Z,15.10
2022-11-16T14:03:52.050Z,14.10
2022-11-16T14:08:55.543Z,17.30
2022-11-16T14:14:00.959Z,17.70
2022-11-16T14:19:05.279Z,17.60
2022-11-16T14:24:25.742Z,13.60
2022-11-16T14:29:56.215Z,15.20
2022-11-16T14:35:00.586Z,17.20
2022-11-16T14:40:16.983Z,23.00
2022-11-16T14:45:29.524Z,17.20
2022-11-16T14:50:39.619Z,19.90
2022-11-16T14:55:46.315Z,28.50
2022-11-16T15:00:58.665Z,21.10
2022-11-16T15:06:02.524Z,21.10
2022-11-16T15:11:08.341Z,18.90
2022-11-16T15:16:14.774Z,16.20
2022-11-16T15:21:23.925Z,19.50
2022-11-16T15:26:25.791Z,19.80
2022-11-16T15:31:28.852Z,18.40
2022-11-16T15:36:41.388Z,12.50
2022-11-16T15:41:44.067Z,14.50
2022-11-16T15:46:49.189Z,18.00
2022-11-16T15:51:51.373Z,18.90
2022-11-16T15:56:56.823Z,18.30
2022-11-16T16:01:59.049Z,18.30
2022-11-16T16:07:01.299Z,17.70
2022-11-16T16:12:23.330Z,20.50
2022-11-16T16:17:30.170Z,18.30
2022-11-16T16:22:36.564Z,19.10
2022-11-16T16:27:40.787Z,18.20
2022-11-16T16:32:42.719Z,16.20
2022-11-16T16:37:44.784Z,18.30
2022-11-16T16:42:49.650Z,19.20
2022-11-16T16:47:51.607Z,23.90
2022-11-16T16:52:53.498Z,19.30
2022-11-16T16:57:57.745Z,25.00
2022-11-16T17:02:59.580Z,21.90
2022-11-16T17:08:01.762Z,21.80
2022-11-16T17:13:03.971Z,23.70
2022-11-16T17:18:05.856Z,28.90
2022-11-16T17:23:07.679Z,25.90
2022-11-16T17:28:09.531Z,33.80
2022-11-16T17:33:11.417Z,26.30
2022-11-16T17:38:13.365Z,21.60
2022-11-16T17:43:15.150Z,26.30
2022-11-16T17:48:17.023Z,32.60
2022-11-16T17:53:18.837Z,26.70
2022-11-16T17:58:21.298Z,22.00
2022-11-16T18:03:28.376Z,28.00
2022-11-16T18:08:32.065Z,26.10
2022-11-16T18:13:34.713Z,20.80
2022-11-16T18:18:38.500Z,21.70
2022-11-16T18:23:40.721Z,25.20
2022-11-16T18:28:45.305Z,24.90
2022-11-16T18:33:49.416Z,28.90
2022-11-16T18:38:51.397Z,21.60
2022-11-16T18:43:55.502Z,23.40
2022-11-16T18:48:58.124Z,19.20
2022-11-16T18:54:00.016Z,19.00
2022-11-16T18:59:02.985Z,17.00
2022-11-16T19:04:05.083Z,18.30
2022-11-16T19:09:09.838Z,16.30
2022-11-16T19:14:11.711Z,20.90
2022-11-16T19:19:14.077Z,13.40
2022-11-16T19:24:15.957Z,12.40
2022-11-16T19:29:17.773Z,12.80
2022-11-16T19:34:19.681Z,13.70
2022-11-16T19:39:21.479Z,10.50
2022-11-16T19:44:23.462Z,11.70
2022-11-16T19:49:26.232Z,12.80
2022-11-16T19:54:28.178Z,10.90
2022-11-16T19:59:30.013Z,9.90
2022-11-16T20:04:35.649Z,6.40
2022-11-16T20:09:37.594Z,9.20
2022-11-16T20:14:39.531Z,10.00
2022-11-16T20:19:41.954Z,15.10
2022-11-16T20:24:43.828Z,11.70
2022-11-16T20:29:45.936Z,11.50
2022-11-16T20:34:47.766Z,12.70
2022-11-16T20:39:52.727Z,12.50
2022-11-16T20:44:54.645Z,10.60
2022-11-16T20:49:58.598Z,11.40
2022-11-16T20:55:00.594Z,11.80
2022-11-16T21:00:02.490Z,14.70
2022-11-16T21:05:04.591Z,11.10
2022-11-16T21:10:19.426Z,9.60
2022-11-16T21:15:21.367Z,14.30
2022-11-16T21:20:27.951Z,17.50
2022-11-16T21:25:30.536Z,16.90
2022-11-16T21:30:32.410Z,19.50
2022-11-16T21:35:34.383Z,17.90
2022-11-16T21:40:36.288Z,19.50
2022-11-16T21:45:38.123Z,18.10
2022-11-16T21:50:41.311Z,14.20
2022-11-16T21:55:49.724Z,18.20
2022-11-16T22:00:56.485Z,17.00
2022-11-16T22:06:19.104Z,16.50
2022-11-16T22:11:22.449Z,20.30
2022-11-16T22:16:26.992Z,15.80
2022-11-16T22:21:28.903Z,10.90
2022-11-16T22:26:30.752Z,16.80
2022-11-16T22:31:33.646Z,17.10
2022-11-16T22:36:35.540Z,14.60
2022-11-16T22:41:37.421Z,16.60
2022-11-16T22:46:39.304Z,19.30
2022-11-16T22:51:41.268Z,14.80
2022-11-16T22:56:43.824Z,13.00
2022-11-16T23:01:45.913Z,15.30
2022-11-16T23:06:47.931Z,12.50
2022-11-16T23:12:08.744Z,15.70
2022-11-16T23:17:10.673Z,13.60
2022-11-16T23:22:36.980Z,13.30
2022-11-16T23:27:55.615Z,13.30
2022-11-16T23:32:57.522Z,12.50
2022-11-16T23:38:01.638Z,17.40
2022-11-16T23:43:23.368Z,14.10
2022-11-16T23:48:25.226Z,13.20
2022-11-16T23:53:27.232Z,15.80
2022-11-16T23:58:29.104Z,13.00
